Enterprise, Kansas
Current Conditions -  °F | °C
As of 2:58 PM on Monday 24 Nov 2014 (Local Time) from KFRI Reporting Station
Clear Clear  
Wind Chill: 39°   Ceiling: Unl
Heat Index: 45°   Visibility: 10mi
Dew Point: 17°   Wind: 14mph
Humidity: 33%   Direction: 320°NW
Pressure: 29.89"   Gusts: 22mph
Location:  38.9°N, 97.12°W
Report Text: KFRI 242058Z AUTO 32012G19KT 10SM CLR 07/M08 A2989 RMK AO2 SLP126 T00731083
Loading
Personal Weather Stations






























Interactive Weather Map New forecast layout! Learn more

10-Day Weather Forecast

Advertisements
Track Severe Weather on mobile